• Join FlightAware (Why Join?)
  • Login
  • US Flag 
05:29PM EST


 

Airport Tracker/Info


-or-


 

Live Flight TrackerFlight Track Log ✈ AIP5009 ✈ 30-Aug-2013 ✈ KMSO - KBIL

Flight Track Log - Related Links

Times and Time Zones

All times are in EDT time to prevent confusion due to time zone crossing. See the AIP5009 flight status page for this flight to view local times or setup timezone preferences in your user account.

Time Position Orientation Groundspeed Altitude Reporting Facility
EDT Latitude Longitude Course Direction KTS MPH feet Rate Location/Type
04:45AM 46.8914 -114.1389 111° Southeast 169 194 7,600  Level Salt Lake Center
04:46AM 46.8758 -114.0783 111° Southeast 163 188 9,700 1,980 Climbing Salt Lake Center
04:47AM 46.8633 -114.0067 104° East 184 212 11,600 1,800 Climbing Salt Lake Center
04:48AM 46.8514 -113.9314 103° East 190 219 13,300 1,680 Climbing Salt Lake Center
04:49AM 46.8428 -113.8500 99° East 203 234 15,100 1,620 Climbing Salt Lake Center
04:50AM 46.8297 -113.7697 103° East 204 235 16,600 1,380 Climbing Salt Lake Center
04:51AM 46.8164 -113.6844 103° East 216 249 17,900 1,380 Climbing Salt Lake Center
04:52AM 46.7997 -113.5997 106° East 219 252 19,400 1,320 Climbing Salt Lake Center
04:53AM 46.7875 -113.5169 102° East 219 252 20,600 1,080 Climbing Salt Lake Center
04:54AM 46.7736 -113.4275 103° East 226 260 21,600 900 Climbing Salt Lake Center
04:55AM 46.7525 -113.3381 109° East 233 268 22,500 660 Climbing Salt Lake Center
04:56AM 46.7331 -113.2406 106° East 251 289 23,000 180 Climbing Salt Lake Center
04:57AM 46.7164 -113.1319 103° East 275 316 22,900 60 Descending Salt Lake Center
04:58AM 46.6967 -113.0200 104° East 285 328 23,200 60 Climbing Salt Lake Center
04:59AM 46.6739 -112.8939 105° East 297 342 23,100 -120 Descending Salt Lake Center
05:00AM 46.6611 -112.7728 99° East 303 349 23,000 -60 Descending Salt Lake Center
05:01AM 46.6450 -112.6572 101° East 297 342 23,000 -60 Level Salt Lake Center
05:02AM 46.6244 -112.5428 105° East 294 338 22,900  Descending Salt Lake Center
05:03AM 46.6003 -112.4322 108° East 291 335 23,000 60 Climbing Salt Lake Center
05:04AM 46.5786 -112.3228 106° East 288 331 23,100  Climbing Salt Lake Center
05:05AM 46.5567 -112.2147 106° East 285 328 23,000  Descending Salt Lake Center
05:06AM 46.5367 -112.1011 104° East 287 330 23,100  Climbing Salt Lake Center
05:07AM 46.5203 -111.9867 102° East 290 334 23,000 -60 Descending Salt Lake Center
05:08AM 46.5028 -111.8742 103° East 289 333 23,000  Level Salt Lake Center
05:09AM 46.4800 -111.7647 107° East 286 329 23,000  Level Salt Lake Center
05:10AM 46.4569 -111.6542 107° East 288 331 23,100  Climbing Salt Lake Center
05:11AM 46.4303 -111.5350 108° East 286 329 23,100  Level Salt Lake Center
05:12AM 46.4067 -111.4325 108° East 283 326 23,100 -60 Level Salt Lake Center
05:13AM 46.3856 -111.3325 107° East 281 323 23,000  Descending Salt Lake Center
05:14AM 46.3622 -111.2214 107° East 283 326 23,100  Climbing Salt Lake Center
05:15AM 46.3419 -111.1086 105° East 286 329 23,000 -60 Descending Salt Lake Center
05:16AM 46.3228 -110.9944 104° East 289 333 23,000  Level Salt Lake Center
05:17AM 46.2975 -110.8906 109° East 283 326 23,000  Level Salt Lake Center
05:18AM 46.2786 -110.7775 104° East 288 331 23,000  Level Salt Lake Center
05:19AM 46.2592 -110.6661 104° East 287 330 23,100  Climbing Salt Lake Center
05:20AM 46.2375 -110.5539 106° East 290 334 23,100 -60 Level Salt Lake Center
05:21AM 46.2150 -110.4431 106° East 290 334 23,000 -120 Descending Salt Lake Center
05:22AM 46.1922 -110.3317 106° East 290 334 22,900 -300 Descending Salt Lake Center
05:23AM 46.1642 -110.2206 110° East 293 337 22,400 -660 Descending Salt Lake Center
05:24AM 46.1383 -110.1044 108° East 301 346 21,600 -900 Descending Salt Lake Center
05:25AM 46.1117 -109.9869 108° East 307 353 20,700 -900 Descending Salt Lake Center
05:26AM 46.0892 -109.8647 105° East 313 360 19,800 -1,080 Descending Salt Lake Center
05:27AM 46.0681 -109.7283 103° East 316 364 18,600 -960 Descending Salt Lake Center
05:28AM 46.0478 -109.6083 104° East 311 358 17,900 -720 Descending Salt Lake Center
05:29AM 46.0289 -109.4836 102° East 299 344 17,200 -900 Descending Salt Lake Center
05:30AM 46.0147 -109.3669 100° East 299 344 16,100 -1,080 Descending Salt Lake Center
05:31AM 45.9939 -109.2528 105° East 300 345 15,100 -1,200 Descending Salt Lake Center
05:32AM 45.9689 -109.1414 108° East 298 343 13,700 -1,440 Descending Salt Lake Center
05:33AM 45.9406 -109.0303 110° East 300 345 12,300 -1,440 Descending Salt Lake Center
05:34AM 45.9111 -108.9153 110° East 309 356 10,800 -1,620 Descending Salt Lake Center
05:35AM 45.8828 -108.8094 111° Southeast 290 334 9,100 -2,100 Descending Salt Lake Center
05:36AM 45.8531 -108.7028 112° Southeast 272 313 6,600 -2,100 Descending Salt Lake Center
05:37AM 45.8311 -108.6222 111° Southeast 224 258 4,900 -1,380 Descending Salt Lake Center
05:38AM 45.8158 -108.5664 111° Southeast 177 204 3,900 -1,020 Descending Salt Lake Center
05:40AM 45.8077 -108.5429 110° East  Level Estimated
05:47AM 45.8077 -108.5429 110° East  Level Estimated